Time;durP1;ratioP1;P1;durP2;ratioP2;P2;SDS_P1;SDS_P2;PMS_P1;PMS_P2;Temp;Humidity;BMP_temperature;BMP_pressure;BME280_temperature;BME280_humidity;BME280_pressure;Samples;Min_cycle;Max_cycle;Signal;HPM_P1;HPM_P2
2023/10/15 00:00:38;;;;;;;6.00;0.90;;;;;;;8.82;nan;99620.41;2057861;28;20042;-75
2023/10/15 00:01:42;;;;;;;6.57;0.95;;;;;;;8.85;nan;99619.84;2073426;28;20073;-76
2023/10/15 00:02:46;;;;;;;4.47;0.90;;;;;;;8.84;nan;99622.81;2082073;28;20034;-76
2023/10/15 00:03:47;;;;;;;5.28;0.90;;;;;;;8.81;nan;99622.31;2074384;28;20945;-76
2023/10/15 00:04:51;;;;;;;3.67;0.93;;;;;;;8.83;nan;99622.03;2074681;28;20080;-76
2023/10/15 00:05:53;;;;;;;3.30;0.88;;;;;;;8.85;nan;99611.78;2083205;28;20920;-75
2023/10/15 00:06:55;;;;;;;7.10;1.35;;;;;;;8.84;nan;99615.56;2074542;28;20037;-76
2023/10/15 00:07:57;;;;;;;7.30;1.17;;;;;;;8.80;nan;99611.88;2074964;28;20852;-77
2023/10/15 00:09:00;;;;;;;5.72;1.20;;;;;;;8.84;nan;99617.47;2089449;28;20029;-76
2023/10/15 00:10:01;;;;;;;3.53;0.85;;;;;;;8.86;nan;99613.41;2077569;28;20041;-77
2023/10/15 00:11:11;;;;;;;3.38;0.65;;;;;;;8.83;nan;99608.63;2066428;28;20896;-79
2023/10/15 00:12:13;;;;;;;4.88;0.98;;;;;;;8.80;nan;99607.31;2068629;28;20031;-78
2023/10/15 00:13:14;;;;;;;7.13;1.00;;;;;;;8.79;nan;99603.03;2066432;28;20850;-77
2023/10/15 00:14:16;;;;;;;5.38;0.88;;;;;;;8.80;nan;99611.88;2083073;28;20050;-78
2023/10/15 00:15:19;;;;;;;4.90;0.80;;;;;;;8.81;nan;99603.53;2082355;28;20050;-78
2023/10/15 00:16:22;;;;;;;7.97;1.67;;;;;;;8.79;nan;99607.59;2075210;28;20037;-78
2023/10/15 00:17:27;;;;;;;4.50;0.90;;;;;;;8.78;nan;99606.00;2065949;28;20844;-78
2023/10/15 00:18:29;;;;;;;3.55;0.68;;;;;;;8.79;nan;99607.59;2068729;28;20027;-78
2023/10/15 00:19:32;;;;;;;7.63;1.05;;;;;;;8.75;nan;99609.25;2082558;28;20141;-78
2023/10/15 00:20:40;;;;;;;7.55;0.98;;;;;;;8.74;nan;99610.34;2074192;28;20027;-78
2023/10/15 00:21:41;;;;;;;4.30;1.00;;;;;;;8.73;nan;99606.06;2069283;28;20031;-78
2023/10/15 00:22:44;;;;;;;4.82;0.80;;;;;;;8.73;nan;99609.56;2082990;28;20141;-78
2023/10/15 00:23:47;;;;;;;6.00;1.30;;;;;;;8.67;nan;99615.25;2081853;28;20099;-78
2023/10/15 00:24:51;;;;;;;13.57;1.02;;;;;;;8.67;nan;99609.91;2079084;28;20030;-78
2023/10/15 00:25:53;;;;;;;6.97;1.08;;;;;;;8.70;nan;99601.28;2074154;28;20880;-78
2023/10/15 00:26:55;;;;;;;5.75;0.90;;;;;;;8.69;nan;99608.53;2066584;28;20043;-78
2023/10/15 00:27:57;;;;;;;7.32;0.90;;;;;;;8.66;nan;99614.47;2082518;28;20046;-79
2023/10/15 00:28:58;;;;;;;1.95;0.68;;;;;;;8.64;nan;99605.94;2066318;28;20043;-78
2023/10/15 00:30:19;;;;;;;10.20;1.10;;;;;;;8.63;nan;99596.28;2053603;28;20036;-76
2023/10/15 00:31:20;;;;;;;8.65;1.10;;;;;;;8.60;nan;99604.91;2078731;28;20037;-76
2023/10/15 00:32:22;;;;;;;5.97;0.93;;;;;;;8.62;nan;99588.53;2074486;28;20033;-76
2023/10/15 00:33:25;;;;;;;5.25;0.85;;;;;;;8.63;nan;99595.50;2074738;28;20038;-76
2023/10/15 00:34:30;;;;;;;10.82;1.00;;;;;;;8.59;nan;99609.47;2066194;28;20035;-76
2023/10/15 00:35:34;;;;;;;4.43;1.30;;;;;;;8.61;nan;99590.44;2067730;28;20026;-76
2023/10/15 00:36:39;;;;;;;5.38;0.88;;;;;;;8.59;nan;99609.47;2075347;28;20866;-76
2023/10/15 00:37:56;;;;;;;6.53;1.25;;;;;;;8.57;nan;99594.75;2084459;28;20888;-76
2023/10/15 00:38:57;;;;;;;6.57;0.90;;;;;;;8.57;nan;99594.75;2079183;28;20140;-76
2023/10/15 00:39:59;;;;;;;6.85;0.98;;;;;;;8.57;nan;99594.75;2067911;28;20054;-75
2023/10/15 00:41:07;;;;;;;5.95;0.80;;;;;;;8.58;nan;99596.38;2074830;28;20019;-76
2023/10/15 00:42:09;;;;;;;3.47;0.65;;;;;;;8.56;nan;99602.00;2076099;28;20137;-76
2023/10/15 00:43:13;;;;;;;8.70;1.05;;;;;;;8.57;nan;99592.91;2074622;28;20042;-76
2023/10/15 00:44:16;;;;;;;6.40;1.00;;;;;;;8.57;nan;99595.56;2074350;28;20026;-76
2023/10/15 00:45:18;;;;;;;3.28;0.70;;;;;;;8.53;nan;99589.19;2074449;28;21199;-76
2023/10/15 00:46:24;;;;;;;7.80;1.02;;;;;;;8.56;nan;99585.13;2074566;28;20031;-76
2023/10/15 00:47:34;;;;;;;4.85;1.08;;;;;;;8.55;nan;99599.63;2083220;28;20042;-76
2023/10/15 00:48:40;;;;;;;6.45;1.08;;;;;;;8.54;nan;99603.38;2082313;28;20045;-75
2023/10/15 00:49:45;;;;;;;9.65;1.17;;;;;;;8.54;nan;99584.63;2075116;28;20034;-76
2023/10/15 00:50:47;;;;;;;6.28;1.20;;;;;;;8.51;nan;99580.66;2074559;28;20975;-75
2023/10/15 00:51:49;;;;;;;5.45;0.80;;;;;;;8.53;nan;99583.81;2074486;28;20149;-75
2023/10/15 00:52:51;;;;;;;4.85;0.90;;;;;;;8.54;nan;99580.06;2074324;28;20945;-75
2023/10/15 00:53:58;;;;;;;4.40;0.85;;;;;;;8.56;nan;99577.09;2057219;28;20137;-75
2023/10/15 00:55:01;;;;;;;7.00;0.98;;;;;;;8.55;nan;99589.69;2057567;28;20194;-75
2023/10/15 00:56:10;;;;;;;7.22;1.00;;;;;;;8.57;nan;99584.84;2090683;28;20838;-74
2023/10/15 00:57:56;;;;;;;6.68;0.70;;;;;;;8.57;nan;99574.13;2082511;28;20160;-74
2023/10/15 00:58:39;;;;;;;5.95;0.63;;;;;;;8.57;nan;99584.84;2079168;28;20034;-74
2023/10/15 00:59:45;;;;;;;7.72;0.80;;;;;;;8.54;nan;99580.06;2074010;28;20046;-74
2023/10/15 01:00:53;;;;;;;4.05;0.75;;;;;;;8.56;nan;99588.59;2068195;28;20077;-74
2023/10/15 01:02:03;;;;;;;4.85;0.90;;;;;;;8.51;nan;99588.69;2075048;28;20042;-74
2023/10/15 01:03:07;;;;;;;3.75;0.80;;;;;;;8.47;nan;99579.63;2074951;28;20078;-74
2023/10/15 01:04:15;;;;;;;10.90;1.73;;;;;;;8.42;nan;99582.38;2075126;28;20157;-74
2023/10/15 01:05:19;;;;;;;8.43;0.90;;;;;;;8.43;nan;99577.81;2091551;28;20101;-74
2023/10/15 01:06:38;;;;;;;8.27;0.82;;;;;;;8.44;nan;99580.19;2082402;28;20030;-74
2023/10/15 01:07:46;;;;;;;6.95;1.02;;;;;;;8.39;nan;99571.44;2087461;28;20112;-74
2023/10/15 01:08:47;;;;;;;5.18;0.98;;;;;;;8.42;nan;99582.38;2072692;28;20070;-73
2023/10/15 01:09:50;;;;;;;8.07;0.95;;;;;;;8.42;nan;99574.34;2074763;28;21400;-74
2023/10/15 01:11:11;;;;;;;10.80;1.13;;;;;;;8.42;nan;99587.72;2097247;28;20041;-74
2023/10/15 01:12:24;;;;;;;5.20;1.10;;;;;;;8.43;nan;99586.63;2087804;28;20123;-74
2023/10/15 01:13:30;;;;;;;4.75;1.08;;;;;;;8.42;nan;99577.03;2081516;28;20018;-74
2023/10/15 01:14:33;;;;;;;8.25;1.40;;;;;;;8.43;nan;99583.16;2082606;28;20064;-74
2023/10/15 01:15:41;;;;;;;2.88;0.85;;;;;;;8.47;nan;99586.84;2098879;28;20878;-74
2023/10/15 01:16:44;;;;;;;7.80;1.27;;;;;;;8.47;nan;99595.69;2097662;28;20775;-74
2023/10/15 01:17:46;;;;;;;7.95;1.00;;;;;;;8.49;nan;99590.06;2082359;28;20092;-74
2023/10/15 01:18:55;;;;;;;8.48;1.73;;;;;;;8.45;nan;99580.97;2074185;28;20038;-74
2023/10/15 01:19:57;;;;;;;;;;;;;;;8.45;nan;99589.84;2076851;28;20030;-74
2023/10/15 01:21:02;;;;;;;6.43;0.75;;;;;;;8.47;nan;99586.84;2082310;28;19968;-74
2023/10/15 01:22:07;;;;;;;6.65;0.90;;;;;;;8.47;nan;99584.97;2073981;28;20018;-74
2023/10/15 01:23:28;;;;;;;6.82;1.15;;;;;;;8.47;nan;99581.50;2083304;28;20073;-74
2023/10/15 01:24:38;;;;;;;5.10;0.73;;;;;;;8.38;nan;99583.19;2075525;28;20034;-74
2023/10/15 01:25:48;;;;;;;11.00;0.85;;;;;;;8.43;nan;99575.94;2068873;28;20149;-75
2023/10/15 01:27:00;;;;;;;9.38;1.40;;;;;;;8.48;nan;99593.81;2075398;28;20033;-75
2023/10/15 01:28:06;;;;;;;5.78;0.88;;;;;;;8.49;nan;99582.03;2075252;28;20042;-75
2023/10/15 01:29:07;;;;;;;8.95;0.90;;;;;;;8.50;nan;99595.13;2082719;28;20036;-74
2023/10/15 01:30:17;;;;;;;4.22;1.02;;;;;;;8.48;nan;99578.56;2082031;28;20030;-75
2023/10/15 01:31:24;;;;;;;5.45;1.48;;;;;;;8.41;nan;99586.13;2060680;28;20803;-75
2023/10/15 01:32:26;;;;;;;5.68;0.85;;;;;;;8.42;nan;99577.03;2075705;28;20038;-75
2023/10/15 01:33:31;;;;;;;6.28;1.00;;;;;;;8.45;nan;99586.34;2082232;28;20021;-75
2023/10/15 01:34:37;;;;;;;7.28;1.10;;;;;;;8.42;nan;99594.94;2074367;28;20054;-75
2023/10/15 01:35:44;;;;;;;7.70;0.90;;;;;;;8.39;nan;99582.16;2067583;28;20105;-75
2023/10/15 01:36:47;;;;;;;7.57;0.77;;;;;;;8.40;nan;99581.06;2084166;28;20037;-75
2023/10/15 01:38:51;;;;;;;4.57;0.90;;;;;;;8.43;nan;99593.88;2082028;28;20034;-75
2023/10/15 01:39:32;;;;;;;7.72;1.20;;;;;;;8.45;nan;99592.53;2077336;28;23651;-75
2023/10/15 01:40:40;;;;;;;7.45;1.10;;;;;;;8.45;nan;99600.56;2084427;28;21354;-76
2023/10/15 01:41:42;;;;;;;6.32;1.25;;;;;;;8.44;nan;99590.91;2083118;28;20069;-75
2023/10/15 01:42:46;;;;;;;7.65;0.95;;;;;;;8.45;nan;99594.38;2082209;28;20137;-75
2023/10/15 01:43:50;;;;;;;7.75;1.30;;;;;;;8.46;nan;99598.66;2082689;28;20045;-74
2023/10/15 01:44:53;;;;;;;4.20;0.93;;;;;;;8.44;nan;99593.59;2082621;28;21226;-75
2023/10/15 01:45:58;;;;;;;4.22;1.02;;;;;;;8.45;nan;99592.53;2082542;28;20045;-74
2023/10/15 01:48:13;;;;;;;7.88;1.15;;;;;;;8.47;nan;99589.53;2082290;28;20030;-74
2023/10/15 01:49:30;;;;;;;3.78;0.63;;;;;;;8.43;nan;99591.22;2075024;28;20763;-75
2023/10/15 01:50:49;;;;;;;6.95;1.00;;;;;;;8.39;nan;99593.66;2069872;28;21340;-74
2023/10/15 01:51:53;;;;;;;5.88;0.90;;;;;;;8.41;nan;99588.81;2076283;28;20149;-75
2023/10/15 01:53:01;;;;;;;6.10;0.98;;;;;;;8.37;nan;99587.75;2074748;28;21208;-75
2023/10/15 01:54:05;;;;;;;8.05;1.00;;;;;;;8.40;nan;99584.53;2090553;28;20025;-75
2023/10/15 01:55:07;;;;;;;10.57;1.55;;;;;;;8.40;nan;99589.91;2060893;28;20062;-75
2023/10/15 01:56:16;;;;;;;8.95;1.00;;;;;;;8.37;nan;99577.03;2072739;28;20196;-75
2023/10/15 01:57:19;;;;;;;7.07;1.00;;;;;;;8.35;nan;99581.88;2066869;28;20962;-74
2023/10/15 01:58:30;;;;;;;3.10;0.73;;;;;;;8.33;nan;99594.78;2074117;28;20967;-74
2023/10/15 01:59:47;;;;;;;6.72;1.00;;;;;;;8.36;nan;99599.56;2073712;28;20041;-74
2023/10/15 02:00:51;;;;;;;5.35;1.10;;;;;;;8.35;nan;99593.41;2080296;28;20022;-74
2023/10/15 02:01:56;;;;;;;3.60;1.08;;;;;;;8.34;nan;99589.13;2090650;28;20018;-74
2023/10/15 02:02:57;;;;;;;5.32;0.68;;;;;;;8.33;nan;99590.22;2073834;28;20943;-74
2023/10/15 02:03:59;;;;;;;6.47;0.80;;;;;;;8.34;nan;99593.69;2074221;28;20805;-74
2023/10/15 02:05:02;;;;;;;8.15;0.95;;;;;;;8.33;nan;99594.78;2082001;28;20042;-74
2023/10/15 02:06:06;;;;;;;10.07;1.20;;;;;;;8.33;nan;99578.72;2074071;28;20064;-75
2023/10/15 02:07:07;;;;;;;5.50;1.00;;;;;;;8.30;nan;99574.72;2082407;28;20974;-74
2023/10/15 02:08:23;;;;;;;10.05;1.25;;;;;;;8.32;nan;99587.81;2073553;28;20880;-75
2023/10/15 02:09:29;;;;;;;8.50;1.10;;;;;;;8.30;nan;99590.78;2060219;28;20038;-75
2023/10/15 02:10:30;;;;;;;4.32;0.88;;;;;;;8.32;nan;99593.16;2074866;28;20994;-76
2023/10/15 02:11:35;;;;;;;8.32;0.90;;;;;;;8.34;nan;99593.69;2073599;28;20980;-76
2023/10/15 02:12:37;;;;;;;8.73;0.98;;;;;;;8.31;nan;99580.88;2066744;28;20022;-75
2023/10/15 02:13:45;;;;;;;6.85;1.27;;;;;;;8.29;nan;99585.69;2074238;28;20144;-76
2023/10/15 02:14:51;;;;;;;5.18;1.23;;;;;;;8.28;nan;99598.31;2066055;28;20863;-76
2023/10/15 02:16:08;;;;;;;5.30;0.90;;;;;;;8.27;nan;99612.00;2070328;28;20097;-76
2023/10/15 02:17:18;;;;;;;6.53;0.90;;;;;;;8.25;nan;99593.53;2082636;28;20768;-77
2023/10/15 02:18:21;;;;;;;6.75;0.80;;;;;;;8.26;nan;99602.34;2070959;28;20104;-75
2023/10/15 02:19:35;;;;;;;5.70;1.17;;;;;;;8.27;nan;99595.94;2065896;28;20856;-77
2023/10/15 02:21:00;;;;;;;8.80;1.13;;;;;;;8.23;nan;99592.22;2075532;28;20045;-76
2023/10/15 02:22:04;;;;;;;6.20;0.82;;;;;;;8.22;nan;99598.66;2071651;28;20144;-77
2023/10/15 02:23:06;;;;;;;7.38;0.73;;;;;;;8.20;nan;99588.25;2074516;28;20034;-80
2023/10/15 02:24:08;;;;;;;4.15;0.80;;;;;;;8.19;nan;99599.22;2082060;28;20073;-77
2023/10/15 02:25:10;;;;;;;7.93;1.02;;;;;;;8.23;nan;99586.84;2068579;28;20038;-77
2023/10/15 02:26:12;;;;;;;4.35;0.70;;;;;;;8.22;nan;99590.63;2089294;28;20970;-77
2023/10/15 02:27:23;;;;;;;6.68;0.93;;;;;;;8.18;nan;99603.78;2065727;28;21386;-78
2023/10/15 02:28:26;;;;;;;7.15;1.10;;;;;;;8.15;nan;99585.63;2060094;28;20046;-78
2023/10/15 02:29:34;;;;;;;4.22;1.08;;;;;;;8.16;nan;99594.44;2065870;28;20903;-78
2023/10/15 02:30:40;;;;;;;3.15;0.80;;;;;;;8.18;nan;99597.63;2083646;28;20057;-78
2023/10/15 02:31:43;;;;;;;5.25;0.63;;;;;;;8.16;nan;99592.56;2097795;28;20103;-79
2023/10/15 02:32:53;;;;;;;4.43;0.80;;;;;;;8.18;nan;99597.63;2072908;28;20113;-78
2023/10/15 02:33:56;;;;;;;5.15;1.10;;;;;;;8.18;nan;99600.31;2074907;28;20022;-78
2023/10/15 02:35:05;;;;;;;4.85;1.23;;;;;;;8.18;nan;99598.44;2073435;28;20064;-78
2023/10/15 02:36:09;;;;;;;5.22;1.15;;;;;;;8.16;nan;99594.44;2081275;28;20037;-77
2023/10/15 02:37:16;;;;;;;4.72;0.93;;;;;;;8.16;nan;99597.13;2089715;28;20878;-77
2023/10/15 02:38:17;;;;;;;5.60;1.33;;;;;;;8.19;nan;99604.59;2082478;28;20080;-78
2023/10/15 02:39:22;;;;;;;7.68;1.02;;;;;;;8.18;nan;99608.34;2081515;28;20030;-79
2023/10/15 02:40:36;;;;;;;7.05;1.15;;;;;;;8.18;nan;99598.44;2074000;28;20039;-78
2023/10/15 02:41:41;;;;;;;5.95;0.73;;;;;;;8.16;nan;99605.94;2083136;28;20124;-77
2023/10/15 02:42:52;;;;;;;4.70;0.70;;;;;;;8.14;nan;99600.09;2088979;28;20068;-77
2023/10/15 02:43:55;;;;;;;7.15;1.00;;;;;;;8.16;nan;99597.91;2058953;28;20792;-76
2023/10/15 02:44:58;;;;;;;5.85;0.90;;;;;;;8.16;nan;99599.78;2057978;28;20091;-77
2023/10/15 02:46:00;;;;;;;8.60;0.93;;;;;;;8.14;nan;99608.13;2076805;28;20030;-77
2023/10/15 02:47:19;;;;;;;5.65;0.88;;;;;;;8.11;nan;99598.78;2081455;28;20025;-77
2023/10/15 02:48:21;;;;;;;3.63;1.02;;;;;;;8.11;nan;99598.00;2070718;28;20038;-75
2023/10/15 02:49:25;;;;;;;6.47;0.88;;;;;;;8.09;nan;99610.84;2065413;28;20067;-76
2023/10/15 02:50:27;;;;;;;6.07;0.85;;;;;;;8.08;nan;99610.06;2082476;28;20137;-76
2023/10/15 02:51:34;;;;;;;4.07;0.70;;;;;;;8.09;nan;99614.31;2089488;28;20063;-76
2023/10/15 02:52:54;;;;;;;6.40;0.90;;;;;;;8.08;nan;99599.34;2084123;28;20034;-76
2023/10/15 02:54:37;;;;;;;3.92;0.95;;;;;;;8.10;nan;99623.16;2074954;28;20214;-75
2023/10/15 02:55:47;;;;;;;3.03;0.65;;;;;;;8.10;nan;99629.31;2055390;28;20041;-76
2023/10/15 02:57:03;;;;;;;5.57;0.68;;;;;;;8.10;nan;99621.28;2077508;28;20030;-78
2023/10/15 02:58:13;;;;;;;7.20;0.85;;;;;;;8.11;nan;99614.06;2081368;28;20081;-76
2023/10/15 02:59:30;;;;;;;14.52;1.00;;;;;;;8.06;nan;99595.34;2066409;28;20038;-76
2023/10/15 03:00:36;;;;;;;6.85;0.88;;;;;;;8.07;nan;99623.72;2074871;28;20042;-76
2023/10/15 03:01:38;;;;;;;8.00;1.48;;;;;;;8.05;nan;99615.19;2081475;28;20034;-76
2023/10/15 03:02:46;;;;;;;6.55;1.08;;;;;;;8.07;nan;99629.06;2060604;28;20042;-75
2023/10/15 03:03:50;;;;;;;4.18;1.00;;;;;;;8.04;nan;99627.78;2064626;28;20031;-76
2023/10/15 03:05:06;;;;;;;12.57;0.98;;;;;;;8.05;nan;99637.41;2073908;28;20023;-76
2023/10/15 03:06:09;;;;;;;11.80;1.45;;;;;;;8.07;nan;99629.88;2073707;28;20035;-76
2023/10/15 03:07:34;;;;;;;4.35;0.70;;;;;;;8.08;nan;99639.50;2069550;28;20901;-76
2023/10/15 03:08:37;;;;;;;2.92;0.77;;;;;;;8.09;nan;99648.34;2076590;28;20149;-76
2023/10/15 03:09:43;;;;;;;4.82;1.02;;;;;;;8.11;nan;99640.81;2074038;28;20125;-76
2023/10/15 03:10:46;;;;;;;4.85;0.70;;;;;;;8.11;nan;99646.97;2064208;28;20073;-76
2023/10/15 03:11:52;;;;;;;4.95;0.73;;;;;;;8.09;nan;99645.66;2073260;28;20034;-76
2023/10/15 03:12:54;;;;;;;6.22;0.88;;;;;;;8.12;nan;99647.75;2058042;28;20162;-76
2023/10/15 03:14:00;;;;;;;5.30;0.73;;;;;;;8.13;nan;99654.69;2066909;28;20187;-75
2023/10/15 03:15:07;;;;;;;6.28;1.48;;;;;;;8.13;nan;99644.00;2073653;28;20041;-75
2023/10/15 03:16:11;;;;;;;9.65;1.17;;;;;;;8.13;nan;99644.81;2074775;28;20033;-74
2023/10/15 03:17:24;;;;;;;6.72;1.10;;;;;;;8.14;nan;99634.91;2065065;28;20842;-74
2023/10/15 03:18:28;;;;;;;5.68;1.45;;;;;;;8.12;nan;99642.41;2061269;28;20039;-75
2023/10/15 03:19:33;;;;;;;3.42;0.70;;;;;;;8.16;nan;99639.97;2065439;28;20047;-80
2023/10/15 03:20:48;;;;;;;5.35;0.80;;;;;;;8.15;nan;99641.06;2073182;28;20041;-74
2023/10/15 03:21:56;;;;;;;6.53;0.70;;;;;;;8.12;nan;99637.84;2075871;28;20846;-74
2023/10/15 03:22:58;;;;;;;4.38;0.90;;;;;;;8.13;nan;99627.94;2081419;28;20041;-75
2023/10/15 03:24:06;;;;;;;11.50;1.05;;;;;;;8.15;nan;99627.66;2081223;28;20025;-75
2023/10/15 03:25:13;;;;;;;3.90;0.80;;;;;;;8.17;nan;99628.19;2068063;28;20207;-75
2023/10/15 03:26:17;;;;;;;5.55;0.90;;;;;;;8.18;nan;99643.16;2082917;28;20134;-75
2023/10/15 03:27:26;;;;;;;5.88;0.90;;;;;;;8.17;nan;99628.19;2072937;28;20050;-75
2023/10/15 03:28:28;;;;;;;5.68;1.05;;;;;;;8.19;nan;99632.16;2083724;28;20128;-75
2023/10/15 03:29:30;;;;;;;5.57;0.70;;;;;;;8.17;nan;99644.25;2097287;28;20025;-75
2023/10/15 03:30:33;;;;;;;4.32;0.70;;;;;;;8.05;nan;99631.25;2073149;28;21420;-75
2023/10/15 03:31:37;;;;;;;4.45;0.80;;;;;;;8.10;nan;99647.25;2082097;28;20093;-75
2023/10/15 03:32:44;;;;;;;2.85;0.82;;;;;;;8.08;nan;99647.53;2105401;28;20930;-75
2023/10/15 03:34:12;;;;;;;10.05;0.98;;;;;;;8.08;nan;99636.03;2097712;28;20930;-75
2023/10/15 03:36:50;;;;;;;;;;;;;;;8.07;nan;99635.25;2084144;28;20065;-75
2023/10/15 03:37:59;;;;;;;2.95;0.70;;;;;;;8.08;nan;99644.06;2075343;28;19910;-76
2023/10/15 03:39:10;;;;;;;6.20;0.82;;;;;;;8.09;nan;99633.06;2075360;28;20077;-76
2023/10/15 03:40:29;;;;;;;6.32;1.10;;;;;;;8.06;nan;99633.63;2063277;28;21195;-75
2023/10/15 03:41:39;;;;;;;6.57;0.85;;;;;;;8.08;nan;99646.75;2084020;28;20042;-76
2023/10/15 03:42:41;;;;;;;5.90;1.10;;;;;;;8.05;nan;99647.31;2087610;28;20025;-76
2023/10/15 03:43:46;;;;;;;5.97;0.60;;;;;;;8.08;nan;99641.38;2056140;28;20039;-75
2023/10/15 03:44:48;;;;;;;8.55;1.13;;;;;;;8.07;nan;99645.94;2073829;28;20018;-75
2023/10/15 03:45:52;;;;;;;7.20;1.00;;;;;;;8.04;nan;99635.81;2080381;28;20156;-75
2023/10/15 03:47:03;;;;;;;1.83;0.70;;;;;;;8.04;nan;99611.72;2072629;28;20201;-75
2023/10/15 03:48:13;;;;;;;6.07;1.05;;;;;;;8.02;nan;99639.84;2067075;28;20039;-75
2023/10/15 03:49:20;;;;;;;8.18;0.82;;;;;;;8.03;nan;99639.56;2083522;28;20056;-75
2023/10/15 03:50:26;;;;;;;6.40;0.82;;;;;;;8.03;nan;99636.06;2080538;28;20038;-75
2023/10/15 03:51:33;;;;;;;5.20;1.23;;;;;;;8.04;nan;99638.50;2075477;28;20930;-74
2023/10/15 03:52:34;;;;;;;6.43;1.10;;;;;;;8.04;nan;99641.16;2064781;28;20037;-74
2023/10/15 03:53:36;;;;;;;9.15;1.00;;;;;;;8.06;nan;99632.84;2064702;28;20070;-74
2023/10/15 03:54:38;;;;;;;5.50;0.88;;;;;;;8.08;nan;99636.03;2072772;28;21196;-75
2023/10/15 03:55:39;;;;;;;5.53;0.93;;;;;;;8.04;nan;99630.47;2057093;28;20031;-74
2023/10/15 03:56:44;;;;;;;4.22;0.90;;;;;;;8.02;nan;99643.31;2061677;28;20769;-75
2023/10/15 03:57:51;;;;;;;5.47;0.73;;;;;;;7.99;nan;99633.19;2057849;28;20047;-75
2023/10/15 03:58:53;;;;;;;5.50;1.33;;;;;;;7.97;nan;99629.19;2076418;28;20884;-75
2023/10/15 03:59:55;;;;;;;3.58;0.80;;;;;;;7.95;nan;99629.47;2089469;28;20030;-76
2023/10/15 04:01:22;;;;;;;6.15;1.17;;;;;;;7.93;nan;99639.66;2081650;28;20800;-75
2023/10/15 04:02:40;;;;;;;6.38;0.80;;;;;;;8.00;nan;99625.94;2076685;28;20037;-75
2023/10/15 04:03:47;;;;;;;2.50;1.10;;;;;;;8.02;nan;99632.63;2069975;28;20033;-74
2023/10/15 04:05:00;;;;;;;5.35;0.85;;;;;;;8.04;nan;99622.44;2082622;28;20026;-74
2023/10/15 04:06:05;;;;;;;2.55;0.60;;;;;;;8.10;nan;99629.31;2089831;28;20033;-74
2023/10/15 04:07:19;;;;;;;5.35;0.82;;;;;;;8.09;nan;99627.72;2072863;28;20819;-75
2023/10/15 04:08:24;;;;;;;5.78;0.73;;;;;;;8.12;nan;99629.81;2084675;28;20058;-74
2023/10/15 04:09:27;;;;;;;2.63;0.38;;;;;;;8.12;nan;99621.00;2088703;28;20089;-75
2023/10/15 04:10:34;;;;;;;3.35;0.40;;;;;;;8.11;nan;99630.91;2081524;28;20155;-75
2023/10/15 04:11:43;;;;;;;3.33;0.77;;;;;;;8.12;nan;99623.66;2080502;28;20077;-75
2023/10/15 04:12:45;;;;;;;5.75;1.40;;;;;;;8.09;nan;99622.34;2067301;28;20830;-75
2023/10/15 04:13:46;;;;;;;4.25;1.25;;;;;;;8.05;nan;99617.88;2073260;28;20034;-76
2023/10/15 04:14:49;;;;;;;5.60;0.65;;;;;;;8.05;nan;99621.34;2081073;28;20844;-75
2023/10/15 04:15:50;;;;;;;5.57;0.93;;;;;;;8.05;nan;99613.31;2065382;28;20034;-76
2023/10/15 04:16:52;;;;;;;4.32;0.88;;;;;;;8.02;nan;99621.09;2073387;28;20030;-76
2023/10/15 04:17:54;;;;;;;4.30;0.73;;;;;;;8.01;nan;99623.00;2081837;28;20880;-76
2023/10/15 04:19:00;;;;;;;3.50;0.98;;;;;;;8.00;nan;99626.72;2081428;28;20758;-75
2023/10/15 04:20:04;;;;;;;6.28;0.80;;;;;;;7.99;nan;99611.75;2073878;28;20038;-75
2023/10/15 04:21:07;;;;;;;5.00;0.85;;;;;;;7.98;nan;99604.03;2073934;28;20026;-76
2023/10/15 04:22:14;;;;;;;5.93;1.20;;;;;;;7.98;nan;99604.03;2073369;28;20147;-76
2023/10/15 04:24:50;;;;;;;3.78;0.65;;;;;;;7.90;nan;99618.81;2080491;28;20068;-76
2023/10/15 04:25:53;;;;;;;5.60;0.70;;;;;;;7.89;nan;99612.66;2074185;28;20026;-75
2023/10/15 04:26:55;;;;;;;5.35;0.70;;;;;;;7.90;nan;99622.28;2086188;28;21027;-76
2023/10/15 04:27:57;;;;;;;4.47;0.80;;;;;;;7.88;nan;99605.72;2072981;28;20078;-75
2023/10/15 04:28:58;;;;;;;3.50;0.75;;;;;;;7.91;nan;99615.03;2065175;28;20019;-76
2023/10/15 04:30:00;;;;;;;7.68;0.75;;;;;;;7.93;nan;99625.47;2072804;28;20061;-75
2023/10/15 04:31:09;;;;;;;3.60;0.70;;;;;;;7.93;nan;99612.09;2065615;28;20787;-76
2023/10/15 04:32:17;;;;;;;2.67;0.75;;;;;;;7.92;nan;99610.53;2074122;28;20065;-76
2023/10/15 04:33:20;;;;;;;3.28;0.52;;;;;;;7.89;nan;99618.03;2082639;28;20038;-76
2023/10/15 04:34:25;;;;;;;5.68;0.90;;;;;;;7.92;nan;99611.31;2080893;28;20160;-76
2023/10/15 04:35:29;;;;;;;4.15;0.50;;;;;;;7.92;nan;99635.41;2082695;28;20050;-75
2023/10/15 04:36:40;;;;;;;4.20;0.98;;;;;;;7.96;nan;99643.66;2081040;28;20032;-75
2023/10/15 04:37:44;;;;;;;2.58;0.60;;;;;;;7.96;nan;99628.38;2082527;28;20239;-76
2023/10/15 04:38:47;;;;;;;3.13;0.70;;;;;;;7.96;nan;99615.00;2081382;28;20038;-76
2023/10/15 04:39:53;;;;;;;5.03;1.13;;;;;;;7.93;nan;99618.25;2081492;28;20038;-76
2023/10/15 04:42:01;;;;;;;7.13;1.30;;;;;;;7.93;nan;99618.25;2086695;28;20384;-76
2023/10/15 04:43:11;;;;;;;1.42;0.63;;;;;;;7.94;nan;99609.13;2096911;28;20037;-76
2023/10/15 04:44:20;;;;;;;2.50;0.90;;;;;;;7.91;nan;99609.69;2081207;28;20026;-75
2023/10/15 04:46:41;;;;;;;7.40;1.92;;;;;;;7.89;nan;99609.19;2082333;28;20144;-75
2023/10/15 04:47:43;;;;;;;5.15;0.82;;;;;;;7.87;nan;99603.31;2081411;28;20026;-75
2023/10/15 04:48:50;;;;;;;4.43;0.50;;;;;;;7.82;nan;99617.56;2073513;28;20034;-76
2023/10/15 04:49:56;;;;;;;3.42;0.50;;;;;;;7.76;nan;99605.31;2074397;28;20233;-75
2023/10/15 04:51:13;;;;;;;2.45;0.65;;;;;;;7.76;nan;99602.63;2075415;28;20033;-76
2023/10/15 04:52:18;;;;;;;2.90;0.70;;;;;;;7.69;nan;99596.00;2097548;28;20937;-76
2023/10/15 04:54:23;;;;;;;3.63;0.73;;;;;;;7.68;nan;99597.09;2074246;28;20253;-75
2023/10/15 04:55:27;;;;;;;7.45;1.30;;;;;;;7.64;nan;99597.66;2075097;28;20862;-76
2023/10/15 04:56:32;;;;;;;4.57;0.70;;;;;;;7.60;nan;99583.25;2079628;28;20351;-75
2023/10/15 04:57:33;;;;;;;3.50;0.80;;;;;;;7.61;nan;99590.19;2074719;28;20077;-75
2023/10/15 04:58:35;;;;;;;4.00;0.70;;;;;;;7.62;nan;99591.00;2074879;28;20025;-74
2023/10/15 04:59:37;;;;;;;3.22;0.60;;;;;;;7.63;nan;99571.22;2066207;28;20034;-75
2023/10/15 05:00:43;;;;;;;4.43;0.63;;;;;;;7.65;nan;99587.75;2074687;28;20026;-75
2023/10/15 05:01:48;;;;;;;3.58;0.50;;;;;;;7.68;nan;99591.75;2075870;28;20038;-75
2023/10/15 05:02:49;;;;;;;1.60;0.50;;;;;;;7.72;nan;99590.88;2067040;28;20211;-75
2023/10/15 05:03:52;;;;;;;4.15;1.00;;;;;;;7.73;nan;99587.16;2074622;28;20960;-75
2023/10/15 05:04:54;;;;;;;3.95;0.73;;;;;;;7.76;nan;99596.50;2083046;28;20100;-75
2023/10/15 05:06:00;;;;;;;3.33;0.50;;;;;;;7.73;nan;99597.06;2082852;28;20132;-75
2023/10/15 05:07:01;;;;;;;5.82;0.75;;;;;;;7.67;nan;99596.31;2091435;28;20042;-75
2023/10/15 05:08:10;;;;;;;3.05;0.50;;;;;;;7.66;nan;99586.69;2099059;28;20041;-75
2023/10/15 05:09:21;;;;;;;5.60;0.90;;;;;;;7.66;nan;99582.13;2082026;28;20037;-75
2023/10/15 05:10:23;;;;;;;3.60;1.20;;;;;;;7.65;nan;99577.84;2076932;28;20038;-74
2023/10/15 05:11:28;;;;;;;3.55;0.60;;;;;;;7.67;nan;99590.97;2075918;28;20086;-75
2023/10/15 05:12:29;;;;;;;4.03;0.50;;;;;;;7.69;nan;99583.44;2074559;28;20085;-74
2023/10/15 05:13:33;;;;;;;6.13;0.88;;;;;;;7.75;nan;99581.50;2082754;28;20218;-75
2023/10/15 05:14:35;;;;;;;3.28;0.80;;;;;;;7.74;nan;99577.25;2082615;28;20042;-75
2023/10/15 05:15:36;;;;;;;3.20;0.68;;;;;;;7.79;nan;99577.19;2073961;28;20069;-74
2023/10/15 05:16:38;;;;;;;2.67;0.55;;;;;;;7.81;nan;99578.50;2074715;28;20039;-75
2023/10/15 05:17:46;;;;;;;2.30;0.60;;;;;;;7.81;nan;99569.66;2066445;28;20846;-76
2023/10/15 05:18:52;;;;;;;5.10;0.43;;;;;;;7.78;nan;99575.59;2076636;28;20038;-76
2023/10/15 05:19:54;;;;;;;2.83;0.50;;;;;;;7.81;nan;99567.78;2073672;28;20085;-75
2023/10/15 05:20:56;;;;;;;2.83;0.70;;;;;;;7.83;nan;99546.09;2074535;28;20182;-76
2023/10/15 05:21:58;;;;;;;5.60;0.70;;;;;;;7.80;nan;99571.56;2082293;28;20120;-76
2023/10/15 05:23:00;;;;;;;6.18;0.68;;;;;;;7.82;nan;99582.78;2074025;28;20086;-75
2023/10/15 05:24:02;;;;;;;1.77;0.60;;;;;;;7.83;nan;99570.19;2082588;28;20880;-76
2023/10/15 05:25:05;;;;;;;3.92;0.90;;;;;;;7.83;nan;99572.88;2073993;28;20026;-75
2023/10/15 05:26:07;;;;;;;5.82;0.70;;;;;;;7.82;nan;99557.91;2054094;28;20023;-76
2023/10/15 05:27:12;;;;;;;3.35;1.20;;;;;;;7.82;nan;99563.25;2077619;28;20061;-76
2023/10/15 05:28:14;;;;;;;2.30;0.70;;;;;;;7.86;nan;99572.31;2074672;28;20938;-75
2023/10/15 05:29:16;;;;;;;4.93;0.80;;;;;;;7.90;nan;99581.34;2074200;28;20864;-76
2023/10/15 05:30:18;;;;;;;5.55;0.70;;;;;;;7.96;nan;99593.59;2074219;28;20765;-76